Wilson Algeciras — 9HA2471 — position and weather

sailwx.info

Track history (hours):
 
Tides and Currents Weather Stations Pressure Air Temp Water Temp Dewpoint Dewpoint Depression Visibility Wind Speed Wind Dir Waves Ship Positions

Wilson Algeciras

Last reported at 2015-Jan-24 18:27 UTC. Time now 2015-Jan-25 14:19 UTC.
Position N 66°43' E 013°11'.

Length 88 m; draft 5.3 m.

Type: Ship. MMSI: 248689000.

Date/timePositionNaut miles runAvg speedWind from/ knotsBaromVisibWave heightAir tempDewpointWater temp
2015-Jan-24 18:27N 66°43' E 013°11'13 9.0
2015-Jan-24 17:03N 66°32' E 012°57'5 9.7
2015-Jan-24 16:32N 66°27' E 012°60'8 8.5
2015-Jan-24 15:32N 66°20' E 012°50'9 9.3
2015-Jan-24 14:34N 66°15' E 012°30'8 7.8
2015-Jan-24 13:33N 66°17' E 012°11'226 8.4
2015-Jan-23 10:29N 63°21' E 006°34'466 9.0
2015-Jan-21 06:34N 55°35' E 006°50'1010.0
2015-Jan-21 05:33N 55°26' E 006°55'10 9.7
2015-Jan-21 04:33N 55°16' E 006°60'1010.2
2015-Jan-21 03:34N 55°07' E 007°04'1110.5
2015-Jan-21 02:33N 54°57' E 007°10'1010.3
2015-Jan-21 01:33N 54°47' E 007°16'1010.1
2015-Jan-21 00:33N 54°37' E 007°22'10 9.9
2015-Jan-20 23:34N 54°28' E 007°28'9 9.4
2015-Jan-20 22:34N 54°19' E 007°34'9 9.0
2015-Jan-20 21:34N 54°12' E 007°42'8 8.2
2015-Jan-20 20:33N 54°06' E 007°53'8 8.2
2015-Jan-20 19:33N 54°02' E 008°05'9 9.1
2015-Jan-20 18:33N 54°00' E 008°20'1111.1
2015-Jan-20 17:34N 53°57' E 008°38'1211.9
2015-Jan-20 16:34N 53°51' E 008°55'1212.2
2015-Jan-20 15:33N 53°53' E 009°15'1010.0
2015-Jan-20 14:34N 53°44' E 009°26'8 8.1
2015-Jan-20 13:33N 53°37' E 009°33'7 7.5
2015-Jan-20 12:34N 53°34' E 009°44'7 6.8
2015-Jan-20 11:33N 53°33' E 009°55'3 2.6
2015-Jan-20 10:31N 53°30' E 009°57'0 0.0
2015-Jan-20 09:31N 53°30' E 009°57'0 0.0
2015-Jan-20 08:31N 53°30' E 009°57'0 0.0
2015-Jan-20 07:31N 53°30' E 009°57'0 0.0
2015-Jan-20 06:31N 53°30' E 009°57'0 0.0
2015-Jan-20 05:31N 53°30' E 009°57'0 0.0
2015-Jan-20 04:22N 53°30' E 009°57'0 0.0
2015-Jan-20 03:25N 53°30' E 009°57'0 0.0
2015-Jan-20 02:32N 53°30' E 009°57'0 0.0
2015-Jan-20 01:31N 53°30' E 009°57'0 0.0
2015-Jan-20 00:31N 53°30' E 009°57'0 0.0
2015-Jan-19 23:31N 53°30' E 009°57'0 0.0
2015-Jan-19 22:31N 53°30' E 009°57'0 0.0
2015-Jan-19 21:31N 53°30' E 009°57'0 0.0
2015-Jan-19 20:31N 53°30' E 009°57'0 0.0
2015-Jan-19 19:31N 53°30' E 009°57'0 0.0
2015-Jan-19 18:31N 53°30' E 009°57'0 0.0
2015-Jan-19 17:31N 53°30' E 009°57'0 0.0
2015-Jan-19 16:25N 53°30' E 009°57'0 0.0
2015-Jan-19 15:31N 53°30' E 009°57'0 0.0
2015-Jan-19 14:31N 53°30' E 009°57'3 3.4
2015-Jan-19 13:33N 53°32' E 009°53'1 1.3
2015-Jan-19 12:32N 53°31' E 009°53'0 0.0
2015-Jan-19 11:32N 53°31' E 009°53'0 0.0
2015-Jan-19 10:32N 53°31' E 009°53'0 0.0
2015-Jan-19 09:32N 53°31' E 009°53'0 0.0
2015-Jan-19 08:32N 53°31' E 009°53'0 0.0
2015-Jan-19 07:32N 53°31' E 009°53'0 0.0
2015-Jan-19 06:32N 53°31' E 009°53'0 0.0
2015-Jan-19 05:32N 53°31' E 009°53'0 0.0
2015-Jan-19 04:32N 53°31' E 009°53'0 0.0
2015-Jan-19 03:32N 53°31' E 009°53'0 0.0
2015-Jan-19 02:32N 53°31' E 009°53'0 0.0
2015-Jan-19 01:32N 53°31' E 009°53'0 0.0
2015-Jan-19 00:29N 53°31' E 009°53'0 0.0
2015-Jan-18 23:32N 53°31' E 009°53'0 0.0
2015-Jan-18 22:32N 53°31' E 009°53'0 0.0
2015-Jan-18 21:32N 53°31' E 009°53'0 0.0
2015-Jan-18 20:32N 53°31' E 009°53'0 0.0
2015-Jan-18 19:32N 53°31' E 009°53'0 0.0
2015-Jan-18 18:32N 53°31' E 009°53'0 0.0
2015-Jan-18 17:33N 53°31' E 009°53'0 0.0
2015-Jan-18 16:33N 53°31' E 009°53'4 4.0
2015-Jan-18 15:33N 53°33' E 009°48'6 6.1
2015-Jan-18 14:33N 53°35' E 009°38'4 3.9
2015-Jan-18 13:31N 53°37' E 009°32'0 0.1
2015-Jan-18 12:31N 53°37' E 009°33'0 0.0
2015-Jan-18 11:31N 53°37' E 009°33'0 0.0
2015-Jan-18 10:31N 53°37' E 009°33'0 0.0
2015-Jan-18 09:31N 53°37' E 009°33'0 0.0
2015-Jan-18 08:22N 53°37' E 009°33'0 0.2
2015-Jan-18 07:31N 53°37' E 009°33'0 0.0
2015-Jan-18 06:31N 53°37' E 009°32'0 0.0
2015-Jan-18 05:31N 53°37' E 009°32'0 0.0
2015-Jan-18 04:31N 53°37' E 009°32'0 0.0
2015-Jan-18 03:25N 53°37' E 009°32'0 0.0
2015-Jan-18 02:25N 53°37' E 009°32'0 0.0
2015-Jan-18 01:31N 53°37' E 009°32'0 0.1
2015-Jan-18 00:31N 53°37' E 009°33'0 0.0
2015-Jan-17 23:31N 53°37' E 009°33'0 0.0
2015-Jan-17 22:31N 53°37' E 009°33'0 0.0
2015-Jan-17 21:19N 53°37' E 009°33'0 0.0
2015-Jan-17 20:31N 53°37' E 009°33'0 0.0
2015-Jan-17 19:28N 53°37' E 009°33'0 0.1
2015-Jan-17 18:31N 53°37' E 009°32'0 0.0
2015-Jan-17 17:31N 53°37' E 009°32'0 0.0
2015-Jan-17 16:31N 53°37' E 009°32'0 0.0
2015-Jan-17 15:31N 53°37' E 009°32'0 0.0
2015-Jan-17 14:22N 53°37' E 009°32'0 0.0
2015-Jan-17 13:31N 53°37' E 009°32'0 0.0
2015-Jan-17 12:31N 53°37' E 009°33'0 0.1
2015-Jan-17 11:31N 53°37' E 009°33'0 0.0
2015-Jan-17 10:31N 53°37' E 009°33'0 0.0
2015-Jan-17 09:28N 53°37' E 009°33'0 0.0
2015-Jan-17 08:31N 53°37' E 009°33'0 0.0
2015-Jan-17 07:31N 53°37' E 009°33'0 0.1
2015-Jan-17 06:31N 53°37' E 009°33'0 0.1
2015-Jan-17 05:31N 53°37' E 009°32'0 0.0
2015-Jan-17 04:28N 53°37' E 009°32'0 0.0
2015-Jan-17 03:31N 53°37' E 009°32'0 0.0
2015-Jan-17 02:28N 53°37' E 009°32'0 0.0
2015-Jan-17 01:31N 53°37' E 009°32'0 0.0
2015-Jan-17 00:31N 53°37' E 009°32'0 0.1
2015-Jan-16 23:31N 53°37' E 009°32'0 0.1
2015-Jan-16 22:31N 53°37' E 009°33'0 0.0
2015-Jan-16 21:31N 53°37' E 009°33'0 0.0
2015-Jan-16 20:31N 53°37' E 009°33'0 0.0
2015-Jan-16 19:33N 53°37' E 009°33'8 8.4
2015-Jan-16 18:33N 53°44' E 009°26'1010.4
2015-Jan-16 17:34N 53°52' E 009°15'10 9.7
2015-Jan-16 16:34N 53°51' E 008°58'8 7.9
2015-Jan-16 15:33N 53°51' E 008°45'7 6.6
2015-Jan-16 14:33N 53°56' E 008°39'8 8.1
2015-Jan-16 13:33N 53°59' E 008°25'9 9.2
2015-Jan-16 12:33N 53°59' E 008°10'8 8.1
2015-Jan-16 11:34N 54°02' E 007°57'8 7.7
2015-Jan-16 10:34N 54°05' E 007°45'7 7.5
2015-Jan-16 09:33N 54°09' E 007°33'8 8.1
2015-Jan-16 08:33N 54°09' E 007°20'8 8.5
2015-Jan-16 07:34N 54°09' E 007°05'30 9.0
2015-Jan-16 04:11N 54°08' E 006°13'6 9.4
2015-Jan-16 03:33N 54°07' E 006°03'9 9.4
2015-Jan-16 02:33N 54°06' E 005°47'9 9.2
2015-Jan-16 01:34N 54°05' E 005°32'9 9.3
2015-Jan-16 00:33N 54°03' E 005°16'9 8.9
2015-Jan-15 23:33N 54°02' E 005°01'9 8.8
2015-Jan-15 22:32N 54°01' E 004°46'143 8.3
2015-Jan-15 05:24N 53°36' E 000°47'6 7.6
2015-Jan-15 04:34N 53°35' E 000°37'8 7.6
2015-Jan-15 03:34N 53°33' E 000°24'8 7.8
2015-Jan-15 02:34N 53°33' E 000°11'9 9.4
2015-Jan-15 01:33N 53°36' W 000°03'5 5.0
2015-Jan-15 00:33N 53°38' W 000°11'0 0.2
2015-Jan-14 23:33N 53°38' W 000°12'0 0.0
2015-Jan-14 22:34N 53°38' W 000°12'0 0.0
2015-Jan-14 21:27N 53°38' W 000°12'0 0.0
2015-Jan-14 20:33N 53°38' W 000°12'0 0.0
2015-Jan-14 19:34N 53°38' W 000°12'0 0.0
2015-Jan-14 18:33N 53°38' W 000°12'  
Track history (hours):
 
Tides and Currents Weather Stations Pressure Air Temp Water Temp Dewpoint Dewpoint Depression Visibility Wind Speed Wind Dir Waves Ship Positions

Wilson Algeciras

Last reported at 2015-Jan-24 18:27 UTC. Time now 2015-Jan-25 14:19 UTC.
Position N 66°43' E 013°11'.

Length 88 m; draft 5.3 m.

Type: Ship. MMSI: 248689000.

Date/timePositionNaut miles runAvg speedWind from/ knotsBaromVisibWave heightAir tempDewpointWater temp
2015-Jan-24 18:27N 66°43' E 013°11'13 9.0
2015-Jan-24 17:03N 66°32' E 012°57'5 9.7
2015-Jan-24 16:32N 66°27' E 012°60'8 8.5
2015-Jan-24 15:32N 66°20' E 012°50'9 9.3
2015-Jan-24 14:34N 66°15' E 012°30'8 7.8
2015-Jan-24 13:33N 66°17' E 012°11'226 8.4
2015-Jan-23 10:29N 63°21' E 006°34'466 9.0
2015-Jan-21 06:34N 55°35' E 006°50'1010.0
2015-Jan-21 05:33N 55°26' E 006°55'10 9.7
2015-Jan-21 04:33N 55°16' E 006°60'1010.2
2015-Jan-21 03:34N 55°07' E 007°04'1110.5
2015-Jan-21 02:33N 54°57' E 007°10'1010.3
2015-Jan-21 01:33N 54°47' E 007°16'1010.1
2015-Jan-21 00:33N 54°37' E 007°22'10 9.9
2015-Jan-20 23:34N 54°28' E 007°28'9 9.4
2015-Jan-20 22:34N 54°19' E 007°34'9 9.0
2015-Jan-20 21:34N 54°12' E 007°42'8 8.2
2015-Jan-20 20:33N 54°06' E 007°53'8 8.2
2015-Jan-20 19:33N 54°02' E 008°05'9 9.1
2015-Jan-20 18:33N 54°00' E 008°20'1111.1
2015-Jan-20 17:34N 53°57' E 008°38'1211.9
2015-Jan-20 16:34N 53°51' E 008°55'1212.2
2015-Jan-20 15:33N 53°53' E 009°15'1010.0
2015-Jan-20 14:34N 53°44' E 009°26'8 8.1
2015-Jan-20 13:33N 53°37' E 009°33'7 7.5
2015-Jan-20 12:34N 53°34' E 009°44'7 6.8
2015-Jan-20 11:33N 53°33' E 009°55'3 2.6
2015-Jan-20 10:31N 53°30' E 009°57'0 0.0
2015-Jan-20 09:31N 53°30' E 009°57'0 0.0
2015-Jan-20 08:31N 53°30' E 009°57'0 0.0
2015-Jan-20 07:31N 53°30' E 009°57'0 0.0
2015-Jan-20 06:31N 53°30' E 009°57'0 0.0
2015-Jan-20 05:31N 53°30' E 009°57'0 0.0
2015-Jan-20 04:22N 53°30' E 009°57'0 0.0
2015-Jan-20 03:25N 53°30' E 009°57'0 0.0
2015-Jan-20 02:32N 53°30' E 009°57'0 0.0
2015-Jan-20 01:31N 53°30' E 009°57'0 0.0
2015-Jan-20 00:31N 53°30' E 009°57'0 0.0
2015-Jan-19 23:31N 53°30' E 009°57'0 0.0
2015-Jan-19 22:31N 53°30' E 009°57'0 0.0
2015-Jan-19 21:31N 53°30' E 009°57'0 0.0
2015-Jan-19 20:31N 53°30' E 009°57'0 0.0
2015-Jan-19 19:31N 53°30' E 009°57'0 0.0
2015-Jan-19 18:31N 53°30' E 009°57'0 0.0
2015-Jan-19 17:31N 53°30' E 009°57'0 0.0
2015-Jan-19 16:25N 53°30' E 009°57'0 0.0
2015-Jan-19 15:31N 53°30' E 009°57'0 0.0
2015-Jan-19 14:31N 53°30' E 009°57'3 3.4
2015-Jan-19 13:33N 53°32' E 009°53'1 1.3
2015-Jan-19 12:32N 53°31' E 009°53'0 0.0
2015-Jan-19 11:32N 53°31' E 009°53'0 0.0
2015-Jan-19 10:32N 53°31' E 009°53'0 0.0
2015-Jan-19 09:32N 53°31' E 009°53'0 0.0
2015-Jan-19 08:32N 53°31' E 009°53'0 0.0
2015-Jan-19 07:32N 53°31' E 009°53'0 0.0
2015-Jan-19 06:32N 53°31' E 009°53'0 0.0
2015-Jan-19 05:32N 53°31' E 009°53'0 0.0
2015-Jan-19 04:32N 53°31' E 009°53'0 0.0
2015-Jan-19 03:32N 53°31' E 009°53'0 0.0
2015-Jan-19 02:32N 53°31' E 009°53'0 0.0
2015-Jan-19 01:32N 53°31' E 009°53'0 0.0
2015-Jan-19 00:29N 53°31' E 009°53'0 0.0
2015-Jan-18 23:32N 53°31' E 009°53'0 0.0
2015-Jan-18 22:32N 53°31' E 009°53'0 0.0
2015-Jan-18 21:32N 53°31' E 009°53'0 0.0
2015-Jan-18 20:32N 53°31' E 009°53'0 0.0
2015-Jan-18 19:32N 53°31' E 009°53'0 0.0
2015-Jan-18 18:32N 53°31' E 009°53'0 0.0
2015-Jan-18 17:33N 53°31' E 009°53'0 0.0
2015-Jan-18 16:33N 53°31' E 009°53'4 4.0
2015-Jan-18 15:33N 53°33' E 009°48'6 6.1
2015-Jan-18 14:33N 53°35' E 009°38'4 3.9
2015-Jan-18 13:31N 53°37' E 009°32'0 0.1
2015-Jan-18 12:31N 53°37' E 009°33'0 0.0
2015-Jan-18 11:31N 53°37' E 009°33'0 0.0
2015-Jan-18 10:31N 53°37' E 009°33'0 0.0
2015-Jan-18 09:31N 53°37' E 009°33'0 0.0
2015-Jan-18 08:22N 53°37' E 009°33'0 0.2
2015-Jan-18 07:31N 53°37' E 009°33'0 0.0
2015-Jan-18 06:31N 53°37' E 009°32'0 0.0
2015-Jan-18 05:31N 53°37' E 009°32'0 0.0
2015-Jan-18 04:31N 53°37' E 009°32'0 0.0
2015-Jan-18 03:25N 53°37' E 009°32'0 0.0
2015-Jan-18 02:25N 53°37' E 009°32'0 0.0
2015-Jan-18 01:31N 53°37' E 009°32'0 0.1
2015-Jan-18 00:31N 53°37' E 009°33'0 0.0
2015-Jan-17 23:31N 53°37' E 009°33'0 0.0
2015-Jan-17 22:31N 53°37' E 009°33'0 0.0
2015-Jan-17 21:19N 53°37' E 009°33'0 0.0
2015-Jan-17 20:31N 53°37' E 009°33'0 0.0
2015-Jan-17 19:28N 53°37' E 009°33'0 0.1
2015-Jan-17 18:31N 53°37' E 009°32'0 0.0
2015-Jan-17 17:31N 53°37' E 009°32'0 0.0
2015-Jan-17 16:31N 53°37' E 009°32'0 0.0
2015-Jan-17 15:31N 53°37' E 009°32'0 0.0
2015-Jan-17 14:22N 53°37' E 009°32'0 0.0
2015-Jan-17 13:31N 53°37' E 009°32'0 0.0
2015-Jan-17 12:31N 53°37' E 009°33'0 0.1
2015-Jan-17 11:31N 53°37' E 009°33'0 0.0
2015-Jan-17 10:31N 53°37' E 009°33'0 0.0
2015-Jan-17 09:28N 53°37' E 009°33'0 0.0
2015-Jan-17 08:31N 53°37' E 009°33'0 0.0
2015-Jan-17 07:31N 53°37' E 009°33'0 0.1
2015-Jan-17 06:31N 53°37' E 009°33'0 0.1
2015-Jan-17 05:31N 53°37' E 009°32'0 0.0
2015-Jan-17 04:28N 53°37' E 009°32'0 0.0
2015-Jan-17 03:31N 53°37' E 009°32'0 0.0
2015-Jan-17 02:28N 53°37' E 009°32'0 0.0
2015-Jan-17 01:31N 53°37' E 009°32'0 0.0
2015-Jan-17 00:31N 53°37' E 009°32'0 0.1
2015-Jan-16 23:31N 53°37' E 009°32'0 0.1
2015-Jan-16 22:31N 53°37' E 009°33'0 0.0
2015-Jan-16 21:31N 53°37' E 009°33'0 0.0
2015-Jan-16 20:31N 53°37' E 009°33'0 0.0
2015-Jan-16 19:33N 53°37' E 009°33'8 8.4
2015-Jan-16 18:33N 53°44' E 009°26'1010.4
2015-Jan-16 17:34N 53°52' E 009°15'10 9.7
2015-Jan-16 16:34N 53°51' E 008°58'8 7.9
2015-Jan-16 15:33N 53°51' E 008°45'7 6.6
2015-Jan-16 14:33N 53°56' E 008°39'8 8.1
2015-Jan-16 13:33N 53°59' E 008°25'9 9.2
2015-Jan-16 12:33N 53°59' E 008°10'8 8.1
2015-Jan-16 11:34N 54°02' E 007°57'8 7.7
2015-Jan-16 10:34N 54°05' E 007°45'7 7.5
2015-Jan-16 09:33N 54°09' E 007°33'8 8.1
2015-Jan-16 08:33N 54°09' E 007°20'8 8.5
2015-Jan-16 07:34N 54°09' E 007°05'30 9.0
2015-Jan-16 04:11N 54°08' E 006°13'6 9.4
2015-Jan-16 03:33N 54°07' E 006°03'9 9.4
2015-Jan-16 02:33N 54°06' E 005°47'9 9.2
2015-Jan-16 01:34N 54°05' E 005°32'9 9.3
2015-Jan-16 00:33N 54°03' E 005°16'9 8.9
2015-Jan-15 23:33N 54°02' E 005°01'9 8.8
2015-Jan-15 22:32N 54°01' E 004°46'143 8.3
2015-Jan-15 05:24N 53°36' E 000°47'6 7.6
2015-Jan-15 04:34N 53°35' E 000°37'8 7.6
2015-Jan-15 03:34N 53°33' E 000°24'8 7.8
2015-Jan-15 02:34N 53°33' E 000°11'9 9.4
2015-Jan-15 01:33N 53°36' W 000°03'5 5.0
2015-Jan-15 00:33N 53°38' W 000°11'0 0.2
2015-Jan-14 23:33N 53°38' W 000°12'0 0.0
2015-Jan-14 22:34N 53°38' W 000°12'0 0.0
2015-Jan-14 21:27N 53°38' W 000°12'0 0.0
2015-Jan-14 20:33N 53°38' W 000°12'0 0.0
2015-Jan-14 19:34N 53°38' W 000°12'0 0.0
2015-Jan-14 18:33N 53°38' W 000°12'  

Dump ship's entire track history